createdAt,value
2018-08-28T00:00:30.171Z,980.72
2018-08-28T00:01:30.096Z,980.72
2018-08-28T00:02:30.025Z,980.72
2018-08-28T00:03:29.950Z,980.66
2018-08-28T00:04:29.877Z,980.68
2018-08-28T00:05:29.803Z,980.64
2018-08-28T00:06:29.727Z,980.66
2018-08-28T00:07:29.656Z,980.66
2018-08-28T00:08:29.582Z,980.63
2018-08-28T00:09:29.510Z,980.65
2018-08-28T00:10:29.442Z,980.68
2018-08-28T00:11:29.357Z,980.69
2018-08-28T00:12:29.287Z,980.70
2018-08-28T00:13:29.216Z,980.70
2018-08-28T00:14:29.137Z,980.74
2018-08-28T00:15:29.066Z,980.74
2018-08-28T00:16:28.990Z,980.73
2018-08-28T00:17:28.916Z,980.76
2018-08-28T00:18:28.843Z,980.73
2018-08-28T00:19:28.784Z,980.76
2018-08-28T00:20:28.694Z,980.79
2018-08-28T00:21:28.621Z,980.75
2018-08-28T00:22:28.548Z,980.75
2018-08-28T00:23:28.475Z,980.74
2018-08-28T00:24:28.403Z,980.73
2018-08-28T00:25:28.330Z,980.74
2018-08-28T00:26:28.252Z,980.76
2018-08-28T00:27:28.179Z,980.79
2018-08-28T00:28:28.107Z,980.80
2018-08-28T00:29:28.032Z,980.80
2018-08-28T00:30:27.956Z,980.83
2018-08-28T00:31:27.884Z,980.83
2018-08-28T00:32:27.810Z,980.82
2018-08-28T00:33:27.734Z,980.83
2018-08-28T00:34:27.664Z,980.83
2018-08-28T00:35:27.587Z,980.80
2018-08-28T00:36:27.516Z,980.83
2018-08-28T00:37:27.441Z,980.82
2018-08-28T00:38:27.366Z,980.85
2018-08-28T00:39:27.293Z,980.84
2018-08-28T00:40:27.221Z,980.86
2018-08-28T00:41:27.154Z,980.84
2018-08-28T00:42:27.071Z,980.89
2018-08-28T00:43:27.005Z,980.83
2018-08-28T00:44:26.922Z,980.81
2018-08-28T00:45:26.857Z,980.84
2018-08-28T00:46:26.776Z,980.85
2018-08-28T00:47:26.700Z,980.83
2018-08-28T00:48:26.630Z,980.85
2018-08-28T00:49:26.552Z,980.85
2018-08-28T00:50:26.479Z,980.84
2018-08-28T00:51:26.409Z,980.84
2018-08-28T00:52:26.420Z,980.82
2018-08-28T00:53:26.256Z,980.83
2018-08-28T00:54:26.189Z,980.86
2018-08-28T00:55:26.108Z,980.85
2018-08-28T00:56:26.035Z,980.86
2018-08-28T00:57:25.965Z,980.85
2018-08-28T00:58:25.887Z,980.83
2018-08-28T00:59:25.814Z,980.83
2018-08-28T01:00:25.743Z,980.84
2018-08-28T01:01:25.669Z,980.81
2018-08-28T01:02:25.591Z,980.84
2018-08-28T01:03:25.517Z,980.87
2018-08-28T01:04:25.448Z,980.89
2018-08-28T01:05:25.377Z,980.90
2018-08-28T01:06:25.295Z,980.93
2018-08-28T01:07:25.221Z,980.93
2018-08-28T01:08:25.148Z,980.91
2018-08-28T01:09:25.085Z,980.92
2018-08-28T01:10:25.002Z,980.94
2018-08-28T01:11:24.925Z,980.94
2018-08-28T01:12:24.854Z,980.99
2018-08-28T01:13:24.779Z,980.98
2018-08-28T01:14:24.701Z,981.01
2018-08-28T01:15:24.631Z,981.05
2018-08-28T01:16:24.564Z,981.05
2018-08-28T01:17:24.483Z,981.05
2018-08-28T01:18:24.406Z,981.07
2018-08-28T01:19:24.337Z,981.04
2018-08-28T01:20:24.258Z,981.05
2018-08-28T01:21:24.187Z,981.02
2018-08-28T01:22:24.110Z,981.04
2018-08-28T01:23:24.042Z,981.05
2018-08-28T01:24:23.965Z,981.04
2018-08-28T01:25:23.890Z,981.02
2018-08-28T01:26:23.817Z,981.00
2018-08-28T01:27:23.744Z,981.02
2018-08-28T01:28:23.668Z,981.02
2018-08-28T01:29:23.595Z,981.00
2018-08-28T01:30:23.516Z,980.98
2018-08-28T01:31:23.443Z,980.98
2018-08-28T01:32:23.379Z,980.98
2018-08-28T01:33:23.295Z,980.98
2018-08-28T01:34:23.221Z,980.97
2018-08-28T01:35:23.145Z,980.99
2018-08-28T01:36:23.075Z,980.97
2018-08-28T01:37:22.997Z,980.98
2018-08-28T01:38:22.922Z,980.92
2018-08-28T01:39:22.854Z,980.95
2018-08-28T01:40:22.775Z,980.98
2018-08-28T01:41:22.699Z,980.96
2018-08-28T01:42:22.624Z,980.99
2018-08-28T01:43:22.553Z,981.01
2018-08-28T01:44:22.483Z,981.06
2018-08-28T01:45:22.405Z,981.08
2018-08-28T01:46:22.329Z,981.09
2018-08-28T01:47:22.255Z,981.06
2018-08-28T01:48:22.180Z,981.10
2018-08-28T01:49:22.105Z,981.09
2018-08-28T01:50:22.030Z,981.11
2018-08-28T01:51:21.957Z,981.09
2018-08-28T01:52:21.884Z,981.09
2018-08-28T01:53:21.811Z,981.11
2018-08-28T01:54:21.730Z,981.15
2018-08-28T01:55:21.658Z,981.15
2018-08-28T01:56:21.586Z,981.19
2018-08-28T01:57:21.513Z,981.15
2018-08-28T01:58:21.440Z,981.14
2018-08-28T01:59:21.357Z,981.09
2018-08-28T02:00:21.292Z,981.09
2018-08-28T02:01:21.216Z,981.14
2018-08-28T02:02:21.137Z,981.13
2018-08-28T02:03:21.065Z,981.14
2018-08-28T02:04:20.985Z,981.14
2018-08-28T02:05:20.916Z,981.12
2018-08-28T02:06:20.841Z,981.09
2018-08-28T02:07:20.767Z,981.09
2018-08-28T02:08:20.690Z,981.04
2018-08-28T02:09:20.614Z,981.05
2018-08-28T02:10:20.540Z,981.08
2018-08-28T02:11:20.467Z,981.07
2018-08-28T02:12:20.400Z,981.11
2018-08-28T02:13:20.409Z,981.12
2018-08-28T02:14:20.241Z,981.09
2018-08-28T02:15:20.165Z,981.09
2018-08-28T02:16:20.100Z,981.06
2018-08-28T02:17:20.030Z,981.07
2018-08-28T02:18:19.948Z,981.05
2018-08-28T02:19:19.867Z,981.02
2018-08-28T02:20:19.795Z,981.03
2018-08-28T02:21:19.720Z,981.09
2018-08-28T02:22:19.649Z,981.11
2018-08-28T02:23:19.570Z,981.10
2018-08-28T02:24:19.505Z,981.08
2018-08-28T02:25:19.443Z,981.07
2018-08-28T02:26:19.345Z,981.06
2018-08-28T02:27:19.276Z,981.06
2018-08-28T02:28:19.198Z,981.03
2018-08-28T02:29:19.131Z,981.02
2018-08-28T02:30:19.052Z,981.06
2018-08-28T02:31:18.978Z,981.04
2018-08-28T02:32:18.901Z,981.06
2018-08-28T02:33:18.827Z,981.05
2018-08-28T02:34:18.750Z,981.04
2018-08-28T02:35:18.676Z,981.07
2018-08-28T02:36:18.603Z,981.06
2018-08-28T02:37:18.527Z,981.10
2018-08-28T02:38:18.455Z,981.09
2018-08-28T02:39:18.379Z,981.08
2018-08-28T02:40:18.299Z,981.10
2018-08-28T02:41:18.233Z,981.09
2018-08-28T02:42:18.151Z,981.08
2018-08-28T02:43:18.132Z,981.10
2018-08-28T02:44:18.003Z,981.08
2018-08-28T02:45:17.942Z,981.11
2018-08-28T02:46:17.855Z,981.09
2018-08-28T02:47:17.784Z,981.11
2018-08-28T02:48:17.708Z,981.11
2018-08-28T02:49:17.630Z,981.11
2018-08-28T02:50:17.553Z,981.11
2018-08-28T02:51:17.484Z,981.10
2018-08-28T02:52:17.406Z,981.10
2018-08-28T02:53:17.331Z,981.10
2018-08-28T02:54:17.255Z,981.14
2018-08-28T02:55:17.182Z,981.16
2018-08-28T02:56:17.197Z,981.18
2018-08-28T02:57:17.036Z,981.20
2018-08-28T02:58:16.957Z,981.20
2018-08-28T02:59:16.882Z,981.21
2018-08-28T03:00:16.816Z,981.21
2018-08-28T03:01:16.735Z,981.18
2018-08-28T03:02:16.657Z,981.18
2018-08-28T03:03:16.588Z,981.19
2018-08-28T03:04:16.509Z,981.17
2018-08-28T03:05:16.441Z,981.16
2018-08-28T03:06:16.366Z,981.17
2018-08-28T03:07:16.291Z,981.16
2018-08-28T03:08:16.217Z,981.16
2018-08-28T03:09:16.145Z,981.21
2018-08-28T03:10:16.066Z,981.17
2018-08-28T03:11:16.067Z,981.18
2018-08-28T03:12:15.913Z,981.17
2018-08-28T03:13:15.851Z,981.19
2018-08-28T03:14:15.763Z,981.18
2018-08-28T03:15:15.692Z,981.17
2018-08-28T03:16:15.617Z,981.16
2018-08-28T03:17:15.543Z,981.16
2018-08-28T03:18:15.470Z,981.16
2018-08-28T03:19:15.391Z,981.17
2018-08-28T03:20:15.317Z,981.21
2018-08-28T03:21:15.243Z,981.23
2018-08-28T03:22:15.167Z,981.22
2018-08-28T03:23:15.093Z,981.27
2018-08-28T03:24:15.028Z,981.23
2018-08-28T03:25:14.950Z,981.23
2018-08-28T03:26:14.869Z,981.19
2018-08-28T03:27:14.804Z,981.17
2018-08-28T03:28:21.880Z,981.19
2018-08-28T03:30:18.578Z,981.25
2018-08-28T03:31:18.459Z,981.27
2018-08-28T03:33:22.320Z,981.29
2018-08-28T03:34:22.192Z,981.26
2018-08-28T03:36:26.003Z,981.23
2018-08-28T03:37:25.926Z,981.22
2018-08-28T03:39:18.722Z,981.24
2018-08-28T03:40:18.599Z,981.27
2018-08-28T03:42:22.411Z,981.22
2018-08-28T03:43:22.341Z,981.23
2018-08-28T03:45:26.194Z,981.22
2018-08-28T03:46:26.076Z,981.19
2018-08-28T03:47:25.998Z,981.20
2018-08-28T03:48:25.929Z,981.20
2018-08-28T03:49:25.847Z,981.20
2018-08-28T03:50:25.774Z,981.24
2018-08-28T03:51:25.700Z,981.25
2018-08-28T03:52:25.625Z,981.29
2018-08-28T03:53:25.550Z,981.28
2018-08-28T03:54:25.478Z,981.25
2018-08-28T03:55:25.448Z,981.27
2018-08-28T03:56:25.333Z,981.30
2018-08-28T03:57:25.254Z,981.29
2018-08-28T03:58:25.178Z,981.31
2018-08-28T03:59:25.103Z,981.29
2018-08-28T04:00:25.030Z,981.29
2018-08-28T04:01:24.954Z,981.24
2018-08-28T04:02:24.887Z,981.28
2018-08-28T04:03:24.806Z,981.29
2018-08-28T04:04:24.733Z,981.34
2018-08-28T04:05:24.657Z,981.38
2018-08-28T04:06:24.582Z,981.38
2018-08-28T04:07:24.506Z,981.40
2018-08-28T04:08:24.433Z,981.37
2018-08-28T04:09:24.366Z,981.37
2018-08-28T04:10:24.283Z,981.37
2018-08-28T04:11:24.216Z,981.37
2018-08-28T04:12:24.137Z,981.39
2018-08-28T04:13:24.059Z,981.42
2018-08-28T04:14:23.997Z,981.41
2018-08-28T04:15:23.914Z,981.44
2018-08-28T04:16:23.851Z,981.49
2018-08-28T04:17:23.766Z,981.48
2018-08-28T04:18:23.693Z,981.46
2018-08-28T04:19:23.620Z,981.52
2018-08-28T04:20:23.538Z,981.46
2018-08-28T04:21:23.468Z,981.46
2018-08-28T04:22:23.396Z,981.47
2018-08-28T04:23:23.314Z,981.48
2018-08-28T04:24:23.248Z,981.50
2018-08-28T04:25:23.163Z,981.50
2018-08-28T04:26:23.106Z,981.52
2018-08-28T04:27:23.015Z,981.51
2018-08-28T04:28:22.941Z,981.49
2018-08-28T04:29:22.866Z,981.52
2018-08-28T04:30:22.817Z,981.50
2018-08-28T04:31:22.718Z,981.48
2018-08-28T04:32:22.643Z,981.49
2018-08-28T04:33:22.567Z,981.54
2018-08-28T04:34:22.493Z,981.49
2018-08-28T04:35:22.419Z,981.50
2018-08-28T04:36:22.344Z,981.56
2018-08-28T04:37:22.272Z,981.56
2018-08-28T04:38:22.194Z,981.59
2018-08-28T04:39:22.123Z,981.58
2018-08-28T04:40:22.046Z,981.62
2018-08-28T04:41:21.979Z,981.61
2018-08-28T04:42:21.900Z,981.63
2018-08-28T04:43:21.823Z,981.59
2018-08-28T04:44:21.750Z,981.62
2018-08-28T04:45:21.681Z,981.66
2018-08-28T04:46:21.603Z,981.64
2018-08-28T04:47:21.523Z,981.64
2018-08-28T04:48:21.461Z,981.66
2018-08-28T04:49:21.377Z,981.65
2018-08-28T04:50:21.302Z,981.66
2018-08-28T04:51:21.232Z,981.65
2018-08-28T04:52:21.156Z,981.69
2018-08-28T04:53:21.075Z,981.70
2018-08-28T04:54:21.131Z,981.69
2018-08-28T04:55:20.928Z,981.67
2018-08-28T04:56:20.853Z,981.67
2018-08-28T04:57:20.776Z,981.70
2018-08-28T04:58:20.705Z,981.71
2018-08-28T04:59:20.631Z,981.69
2018-08-28T05:00:20.560Z,981.72
2018-08-28T05:01:20.479Z,981.74
2018-08-28T05:02:20.404Z,981.68
2018-08-28T05:03:20.330Z,981.71
2018-08-28T05:04:20.260Z,981.71
2018-08-28T05:05:20.185Z,981.69
2018-08-28T05:06:20.107Z,981.72
2018-08-28T05:07:20.031Z,981.75
2018-08-28T05:08:19.962Z,981.79
2018-08-28T05:09:19.888Z,981.79
2018-08-28T05:10:19.809Z,981.78
2018-08-28T05:11:19.733Z,981.80
2018-08-28T05:12:19.664Z,981.79
2018-08-28T05:13:19.584Z,981.83
2018-08-28T05:14:19.517Z,981.86
2018-08-28T05:15:19.441Z,981.84
2018-08-28T05:16:19.361Z,981.85
2018-08-28T05:17:19.291Z,981.81
2018-08-28T05:18:19.211Z,981.82
2018-08-28T05:19:19.189Z,981.84
2018-08-28T05:20:19.064Z,981.88
2018-08-28T05:21:18.986Z,981.83
2018-08-28T05:22:18.911Z,981.84
2018-08-28T05:23:18.838Z,981.81
2018-08-28T05:24:18.765Z,981.82
2018-08-28T05:25:18.710Z,981.85
2018-08-28T05:26:18.617Z,981.88
2018-08-28T05:27:18.542Z,981.87
2018-08-28T05:28:18.467Z,981.92
2018-08-28T05:29:18.399Z,981.90
2018-08-28T05:30:18.324Z,981.91
2018-08-28T05:31:18.250Z,981.92
2018-08-28T05:32:18.178Z,981.87
2018-08-28T05:33:18.101Z,981.88
2018-08-28T05:34:18.019Z,981.90
2018-08-28T05:35:17.952Z,981.90
2018-08-28T05:36:17.872Z,981.89
2018-08-28T05:37:17.797Z,981.92
2018-08-28T05:38:17.731Z,981.93
2018-08-28T05:39:17.647Z,981.93
2018-08-28T05:40:17.580Z,981.94
2018-08-28T05:41:17.504Z,981.94
2018-08-28T05:42:17.425Z,981.98
2018-08-28T05:43:17.365Z,981.95
2018-08-28T05:44:17.279Z,981.95
2018-08-28T05:45:17.207Z,981.94
2018-08-28T05:46:17.127Z,981.93
2018-08-28T05:47:17.053Z,981.95
2018-08-28T05:48:16.982Z,981.95
2018-08-28T05:49:16.912Z,981.95
2018-08-28T05:50:16.831Z,981.93
2018-08-28T05:51:16.757Z,981.94
2018-08-28T05:52:16.686Z,981.94
2018-08-28T05:53:16.612Z,981.94
2018-08-28T05:54:16.533Z,981.95
2018-08-28T05:55:16.462Z,981.94
2018-08-28T05:56:16.467Z,981.95
2018-08-28T05:57:16.312Z,981.92
2018-08-28T05:58:16.247Z,981.91
2018-08-28T05:59:16.164Z,981.91
2018-08-28T06:00:16.098Z,981.89
2018-08-28T06:01:16.025Z,981.85
2018-08-28T06:02:15.943Z,981.85
2018-08-28T06:03:15.979Z,981.86
2018-08-28T06:04:15.800Z,981.84
2018-08-28T06:05:15.818Z,981.88
2018-08-28T06:06:15.653Z,981.86
2018-08-28T06:07:15.570Z,981.89
2018-08-28T06:08:15.502Z,981.93
2018-08-28T06:09:15.429Z,981.92
2018-08-28T06:10:15.384Z,981.93
2018-08-28T06:11:15.276Z,981.99
2018-08-28T06:12:15.234Z,981.99
2018-08-28T06:13:15.135Z,982.01
2018-08-28T06:14:15.055Z,982.00
2018-08-28T06:15:14.980Z,982.01
2018-08-28T06:16:14.911Z,982.04
2018-08-28T06:17:14.835Z,982.04
2018-08-28T06:18:14.762Z,982.01
2018-08-28T06:19:14.688Z,981.99
2018-08-28T06:20:14.616Z,982.05
2018-08-28T06:21:14.537Z,982.05
2018-08-28T06:22:14.467Z,982.02
2018-08-28T06:23:14.391Z,982.02
2018-08-28T06:24:14.323Z,982.02
2018-08-28T06:25:14.243Z,982.03
2018-08-28T06:26:14.170Z,982.02
2018-08-28T06:27:14.096Z,982.01
2018-08-28T06:28:14.023Z,982.02
2018-08-28T06:29:13.949Z,982.04
2018-08-28T06:30:13.875Z,982.03
2018-08-28T06:31:13.812Z,982.03
2018-08-28T06:32:13.730Z,982.04
2018-08-28T06:33:13.665Z,982.07
2018-08-28T06:34:13.582Z,982.09
2018-08-28T06:35:13.518Z,982.10
2018-08-28T06:36:13.434Z,982.12
2018-08-28T06:37:13.386Z,982.10
2018-08-28T06:38:13.289Z,982.12
2018-08-28T06:39:13.302Z,982.12
2018-08-28T06:40:13.148Z,982.08
2018-08-28T06:41:13.075Z,982.10
2018-08-28T06:42:12.992Z,982.10
2018-08-28T06:43:12.931Z,982.10
2018-08-28T06:44:12.849Z,982.10
2018-08-28T06:45:12.775Z,982.14
2018-08-28T06:46:12.707Z,982.13
2018-08-28T06:47:12.628Z,982.15
2018-08-28T06:48:12.563Z,982.12
2018-08-28T06:49:12.489Z,982.12
2018-08-28T06:50:12.408Z,982.13
2018-08-28T06:51:12.332Z,982.11
2018-08-28T06:52:12.260Z,982.13
2018-08-28T06:53:12.186Z,982.11
2018-08-28T06:54:12.127Z,982.15
2018-08-28T06:55:12.038Z,982.13
2018-08-28T06:56:11.980Z,982.11
2018-08-28T06:57:11.894Z,982.06
2018-08-28T06:58:11.823Z,982.09
2018-08-28T06:59:11.746Z,982.10
2018-08-28T07:00:11.676Z,982.04
2018-08-28T07:01:11.615Z,982.09
2018-08-28T07:02:11.527Z,982.05
2018-08-28T07:03:11.454Z,982.05
2018-08-28T07:04:11.380Z,982.04
2018-08-28T07:05:11.309Z,982.07
2018-08-28T07:06:11.234Z,982.07
2018-08-28T07:07:11.165Z,982.06
2018-08-28T07:08:11.088Z,982.04
2018-08-28T07:09:11.013Z,982.05
2018-08-28T07:10:10.996Z,982.07
2018-08-28T07:11:10.867Z,982.07
2018-08-28T07:12:10.797Z,982.08
2018-08-28T07:13:10.719Z,982.08
2018-08-28T07:14:10.645Z,982.08
2018-08-28T07:15:10.584Z,982.10
2018-08-28T07:16:10.502Z,982.09
2018-08-28T07:17:10.429Z,982.10
2018-08-28T07:18:10.358Z,982.13
2018-08-28T07:19:10.279Z,982.14
2018-08-28T07:20:10.214Z,982.13
2018-08-28T07:21:10.133Z,982.12
2018-08-28T07:22:10.058Z,982.14
2018-08-28T07:23:09.987Z,982.11
2018-08-28T07:24:09.915Z,982.14
2018-08-28T07:25:09.836Z,982.14
2018-08-28T07:26:09.797Z,982.16
2018-08-28T07:27:09.692Z,982.15
2018-08-28T07:28:09.618Z,982.17
2018-08-28T07:29:09.548Z,982.20
2018-08-28T07:30:09.471Z,982.21
2018-08-28T07:31:09.452Z,982.22
2018-08-28T07:32:09.326Z,982.25
2018-08-28T07:33:09.250Z,982.24
2018-08-28T07:34:09.180Z,982.28
2018-08-28T07:35:09.106Z,982.27
2018-08-28T07:36:09.034Z,982.22
2018-08-28T07:37:08.982Z,982.26
2018-08-28T07:38:08.888Z,982.25
2018-08-28T07:39:08.819Z,982.25
2018-08-28T07:40:08.742Z,982.28
2018-08-28T07:41:08.665Z,982.28
2018-08-28T07:42:08.595Z,982.27
2018-08-28T07:43:08.520Z,982.26
2018-08-28T07:44:08.450Z,982.29
2018-08-28T07:45:08.375Z,982.27
2018-08-28T07:46:08.306Z,982.29
2018-08-28T07:47:08.235Z,982.29
2018-08-28T07:48:08.157Z,982.32
2018-08-28T07:49:08.090Z,982.32
2018-08-28T07:50:08.010Z,982.32
2018-08-28T07:51:07.944Z,982.30
2018-08-28T07:52:07.913Z,982.30
2018-08-28T07:53:07.798Z,982.28
2018-08-28T07:54:07.728Z,982.30
2018-08-28T07:55:07.649Z,982.30
2018-08-28T07:56:07.576Z,982.31
2018-08-28T07:57:07.502Z,982.33
2018-08-28T07:58:07.431Z,982.30
2018-08-28T07:59:07.364Z,982.29
2018-08-28T08:00:07.293Z,982.26
2018-08-28T08:01:07.211Z,982.27
2018-08-28T08:02:07.156Z,982.29
2018-08-28T08:03:07.090Z,982.27
2018-08-28T08:04:07.001Z,982.27
2018-08-28T08:05:06.931Z,982.27
2018-08-28T08:06:06.860Z,982.30
2018-08-28T08:07:06.782Z,982.30
2018-08-28T08:08:06.705Z,982.29
2018-08-28T08:09:06.657Z,982.29
2018-08-28T08:10:06.582Z,982.28
2018-08-28T08:11:06.490Z,982.28
2018-08-28T08:12:06.420Z,982.36
2018-08-28T08:13:06.342Z,982.31
2018-08-28T08:14:06.272Z,982.31
2018-08-28T08:15:06.235Z,982.35
2018-08-28T08:16:06.133Z,982.31
2018-08-28T08:17:06.100Z,982.34
2018-08-28T08:18:05.984Z,982.33
2018-08-28T08:19:05.961Z,982.33
2018-08-28T08:20:05.843Z,982.37
2018-08-28T08:21:05.821Z,982.37
2018-08-28T08:22:05.735Z,982.37
2018-08-28T08:23:05.617Z,982.35
2018-08-28T08:24:05.547Z,982.39
2018-08-28T08:25:05.478Z,982.40
2018-08-28T08:26:05.407Z,982.38
2018-08-28T08:27:05.345Z,982.38
2018-08-28T08:28:05.357Z,982.39
2018-08-28T08:29:05.180Z,982.34
2018-08-28T08:30:05.114Z,982.36
2018-08-28T08:31:05.038Z,982.33
2018-08-28T08:32:04.974Z,982.31
2018-08-28T08:33:04.893Z,982.33
2018-08-28T08:34:04.826Z,982.35
2018-08-28T08:35:04.747Z,982.36
2018-08-28T08:36:04.724Z,982.33
2018-08-28T08:37:04.602Z,982.32
2018-08-28T08:38:04.534Z,982.30
2018-08-28T08:39:04.463Z,982.29
2018-08-28T08:40:04.388Z,982.30
2018-08-28T08:41:04.330Z,982.28
2018-08-28T08:42:04.315Z,982.30
2018-08-28T08:43:04.169Z,982.26
2018-08-28T08:44:04.100Z,982.25
2018-08-28T08:45:04.067Z,982.30
2018-08-28T08:46:03.955Z,982.29
2018-08-28T08:47:03.885Z,982.29
2018-08-28T08:48:03.812Z,982.27
2018-08-28T08:49:04.716Z,982.29
2018-08-28T08:50:03.708Z,982.26
2018-08-28T08:51:03.647Z,982.26
2018-08-28T08:52:03.525Z,982.28
2018-08-28T08:53:03.451Z,982.29
2018-08-28T08:54:03.375Z,982.26
2018-08-28T08:55:03.388Z,982.29
2018-08-28T08:56:03.232Z,982.25
2018-08-28T08:57:03.164Z,982.26
2018-08-28T08:58:03.093Z,982.27
2018-08-28T08:59:03.020Z,982.20
2018-08-28T09:00:02.942Z,982.28
2018-08-28T09:01:02.876Z,982.25
2018-08-28T09:02:02.799Z,982.27
2018-08-28T09:03:02.732Z,982.23
2018-08-28T09:04:02.654Z,982.25
2018-08-28T09:05:02.584Z,982.26
2018-08-28T09:06:02.606Z,982.26
2018-08-28T09:07:02.445Z,982.22
2018-08-28T09:08:02.370Z,982.22
2018-08-28T09:09:02.296Z,982.20
2018-08-28T09:10:02.229Z,982.18
2018-08-28T09:11:02.152Z,982.19
2018-08-28T09:12:02.085Z,982.12
2018-08-28T09:13:02.009Z,982.22
2018-08-28T09:14:01.940Z,982.09
2018-08-28T09:15:01.871Z,982.13
2018-08-28T09:16:01.802Z,982.10
2018-08-28T09:17:01.723Z,982.09
2018-08-28T09:18:01.651Z,982.07
2018-08-28T09:19:01.582Z,982.09
2018-08-28T09:20:01.512Z,982.07
2018-08-28T09:21:01.435Z,982.11
2018-08-28T09:22:01.366Z,982.11
2018-08-28T09:23:01.292Z,982.09
2018-08-28T09:24:01.229Z,982.07
2018-08-28T09:25:01.154Z,982.04
2018-08-28T09:26:01.078Z,982.06
2018-08-28T09:27:01.009Z,982.04
2018-08-28T09:28:00.940Z,982.07
2018-08-28T09:29:08.529Z,982.09
2018-08-28T09:31:04.757Z,982.10
2018-08-28T09:32:04.628Z,982.09
2018-08-28T09:34:08.504Z,982.09
2018-08-28T09:35:08.391Z,982.09
2018-08-28T09:36:08.313Z,982.09
2018-08-28T09:37:08.236Z,982.06
2018-08-28T09:38:08.169Z,982.14
2018-08-28T09:39:08.106Z,982.12
2018-08-28T09:40:08.033Z,982.14
2018-08-28T09:41:07.951Z,982.17
2018-08-28T09:42:07.878Z,982.15
2018-08-28T09:43:07.814Z,982.16
2018-08-28T09:44:07.737Z,982.14
2018-08-28T09:45:07.666Z,982.14
2018-08-28T09:46:07.596Z,982.12
2018-08-28T09:47:07.525Z,982.06
2018-08-28T09:48:07.471Z,982.09
2018-08-28T09:49:07.384Z,982.07
2018-08-28T09:50:07.310Z,982.06
2018-08-28T09:51:07.300Z,982.04
2018-08-28T09:52:07.172Z,982.04
2018-08-28T09:53:07.099Z,982.01
2018-08-28T09:54:07.027Z,982.06
2018-08-28T09:55:06.953Z,982.04
2018-08-28T09:56:06.883Z,982.02
2018-08-28T09:57:06.815Z,982.06
2018-08-28T09:58:06.749Z,982.04
2018-08-28T09:59:06.677Z,982.04
2018-08-28T10:00:06.603Z,982.00
2018-08-28T10:01:06.526Z,982.00
2018-08-28T10:02:06.454Z,982.03
2018-08-28T10:03:06.385Z,982.01
2018-08-28T10:04:06.312Z,982.02
2018-08-28T10:05:06.247Z,982.02
2018-08-28T10:06:06.170Z,982.01
2018-08-28T10:07:06.100Z,982.01
2018-08-28T10:08:06.039Z,981.98
2018-08-28T10:09:05.956Z,981.96
2018-08-28T10:10:05.884Z,981.94
2018-08-28T10:11:05.857Z,981.94
2018-08-28T10:12:05.745Z,981.92
2018-08-28T10:13:05.673Z,981.97
2018-08-28T10:14:05.611Z,981.94
2018-08-28T10:15:05.537Z,981.93
2018-08-28T10:16:05.462Z,981.99
2018-08-28T10:17:05.387Z,981.90
2018-08-28T10:18:05.317Z,981.86
2018-08-28T10:19:05.258Z,981.86
2018-08-28T10:20:05.220Z,981.94
2018-08-28T10:21:05.109Z,981.87
2018-08-28T10:22:05.037Z,981.83
2018-08-28T10:23:04.963Z,981.87
2018-08-28T10:24:04.895Z,981.81
2018-08-28T10:25:04.823Z,981.82
2018-08-28T10:26:04.750Z,981.80
2018-08-28T10:27:04.719Z,981.81
2018-08-28T10:28:04.641Z,981.85
2018-08-28T10:29:04.590Z,981.78
2018-08-28T10:30:04.471Z,981.81
2018-08-28T10:31:04.394Z,981.82
2018-08-28T10:32:04.330Z,981.79
2018-08-28T10:33:04.254Z,981.86
2018-08-28T10:34:04.189Z,981.84
2018-08-28T10:35:04.114Z,981.82
2018-08-28T10:36:04.048Z,981.85
2018-08-28T10:37:03.976Z,981.85
2018-08-28T10:38:03.934Z,981.83
2018-08-28T10:39:03.835Z,981.82
2018-08-28T10:40:03.769Z,981.84
2018-08-28T10:41:03.694Z,981.88
2018-08-28T10:42:03.620Z,981.86
2018-08-28T10:43:03.575Z,981.91
2018-08-28T10:44:03.484Z,981.82
2018-08-28T10:45:03.420Z,981.82
2018-08-28T10:46:03.354Z,981.84
2018-08-28T10:47:03.272Z,981.82
2018-08-28T10:48:03.209Z,981.81
2018-08-28T10:49:03.137Z,981.81
2018-08-28T10:50:03.072Z,981.82
2018-08-28T10:51:02.992Z,981.82
2018-08-28T10:52:02.921Z,981.84
2018-08-28T10:53:02.940Z,981.81
2018-08-28T10:54:02.794Z,981.86
2018-08-28T10:55:02.712Z,981.81
2018-08-28T10:56:02.645Z,981.82
2018-08-28T10:57:02.574Z,981.79
2018-08-28T10:58:02.503Z,981.83
2018-08-28T10:59:02.453Z,981.81
2018-08-28T11:00:02.367Z,981.79
2018-08-28T11:01:02.294Z,981.75
2018-08-28T11:02:02.231Z,981.75
2018-08-28T11:03:02.165Z,981.79
2018-08-28T11:04:02.093Z,981.75
2018-08-28T11:05:02.025Z,981.79
2018-08-28T11:06:01.948Z,981.74
2018-08-28T11:07:01.899Z,981.80
2018-08-28T11:08:01.817Z,981.71
2018-08-28T11:09:01.740Z,981.70
2018-08-28T11:10:01.672Z,981.69
2018-08-28T11:11:01.607Z,981.66
2018-08-28T11:12:01.539Z,981.63
2018-08-28T11:13:01.470Z,981.68
2018-08-28T11:14:01.398Z,981.64
2018-08-28T11:15:01.327Z,981.63
2018-08-28T11:16:01.323Z,981.60
2018-08-28T11:17:01.186Z,981.58
2018-08-28T11:18:01.136Z,981.54
2018-08-28T11:19:01.057Z,981.54
2018-08-28T11:20:00.979Z,981.55
2018-08-28T11:21:00.915Z,981.53
2018-08-28T11:22:00.843Z,981.58
2018-08-28T11:23:00.885Z,981.57
2018-08-28T11:24:00.704Z,981.55
2018-08-28T11:25:00.637Z,981.59
2018-08-28T11:26:00.574Z,981.54
2018-08-28T11:27:00.507Z,981.52
2018-08-28T11:28:00.445Z,981.54
2018-08-28T11:29:00.378Z,981.53
2018-08-28T11:30:00.346Z,981.54
2018-08-28T11:31:00.225Z,981.54
2018-08-28T11:32:00.156Z,981.50
2018-08-28T11:33:00.102Z,981.53
2018-08-28T11:34:00.019Z,981.47
2018-08-28T11:34:59.947Z,981.51
2018-08-28T11:35:59.880Z,981.50
2018-08-28T11:36:59.810Z,981.46
2018-08-28T11:37:59.743Z,981.47
2018-08-28T11:38:59.677Z,981.46
2018-08-28T11:39:59.608Z,981.41
2018-08-28T11:40:59.539Z,981.47
2018-08-28T11:41:59.491Z,981.48
2018-08-28T11:42:59.409Z,981.49
2018-08-28T11:43:59.338Z,981.50
2018-08-28T11:44:59.267Z,981.51
2018-08-28T11:45:59.199Z,981.49
2018-08-28T11:46:59.207Z,981.48
2018-08-28T11:47:59.064Z,981.50
2018-08-28T11:48:58.996Z,981.47
2018-08-28T11:49:58.933Z,981.49
2018-08-28T11:50:58.860Z,981.47
2018-08-28T11:51:58.791Z,981.45
2018-08-28T11:52:58.729Z,981.44
2018-08-28T11:53:58.672Z,981.43
2018-08-28T11:54:58.591Z,981.40
2018-08-28T11:55:58.526Z,981.37
2018-08-28T11:56:58.459Z,981.43
2018-08-28T11:57:58.387Z,981.44
2018-08-28T11:58:58.323Z,981.47
2018-08-28T11:59:58.254Z,981.51
2018-08-28T12:00:58.190Z,981.47
2018-08-28T12:01:58.155Z,981.50
2018-08-28T12:02:58.061Z,981.46
2018-08-28T12:03:57.992Z,981.49
2018-08-28T12:04:57.952Z,981.46
2018-08-28T12:05:57.862Z,981.48
2018-08-28T12:06:57.810Z,981.47
2018-08-28T12:07:57.730Z,981.47
2018-08-28T12:08:57.705Z,981.42
2018-08-28T12:09:57.613Z,981.39
2018-08-28T12:10:57.541Z,981.46
2018-08-28T12:11:57.488Z,981.49
2018-08-28T12:12:57.472Z,981.44
2018-08-28T12:13:57.360Z,981.45
2018-08-28T12:14:57.293Z,981.45
2018-08-28T12:15:57.254Z,981.44
2018-08-28T12:16:57.168Z,981.46
2018-08-28T12:17:57.111Z,981.48
2018-08-28T12:18:57.048Z,981.40
2018-08-28T12:19:56.995Z,981.39
2018-08-28T12:20:56.972Z,981.36
2018-08-28T12:21:56.864Z,981.31
2018-08-28T12:22:56.805Z,981.30
2018-08-28T12:23:56.766Z,981.30
2018-08-28T12:24:56.700Z,981.30
2018-08-28T12:25:56.627Z,981.30
2018-08-28T12:26:56.571Z,981.28
2018-08-28T12:27:56.511Z,981.20
2018-08-28T12:28:56.457Z,981.24
2018-08-28T12:29:56.412Z,981.21
2018-08-28T12:30:56.339Z,981.20
2018-08-28T12:31:56.288Z,981.13
2018-08-28T12:32:56.223Z,981.22
2018-08-28T12:33:56.175Z,981.22
2018-08-28T12:34:56.114Z,981.16
2018-08-28T12:35:56.086Z,981.14